sensor_id;sensor_type;location;lat;lon;timestamp;P1;durP1;ratioP1;P2;durP2;ratioP2
76023;SDS011;64719;52.124;6.226;2023-04-06T00:00:04;12.82;;;5.47;;
76023;SDS011;64719;52.124;6.226;2023-04-06T00:02:36;13.50;;;6.00;;
76023;SDS011;64719;52.124;6.226;2023-04-06T00:05:03;9.70;;;5.35;;
76023;SDS011;64719;52.124;6.226;2023-04-06T00:07:31;10.40;;;5.22;;
76023;SDS011;64719;52.124;6.226;2023-04-06T00:09:58;11.85;;;6.00;;
76023;SDS011;64719;52.124;6.226;2023-04-06T00:12:25;11.85;;;6.15;;
76023;SDS011;64719;52.124;6.226;2023-04-06T00:14:51;12.55;;;5.70;;
76023;SDS011;64719;52.124;6.226;2023-04-06T00:17:19;11.98;;;6.13;;
76023;SDS011;64719;52.124;6.226;2023-04-06T00:19:45;12.60;;;6.13;;
76023;SDS011;64719;52.124;6.226;2023-04-06T00:22:12;10.65;;;5.80;;
76023;SDS011;64719;52.124;6.226;2023-04-06T00:24:38;13.18;;;6.22;;
76023;SDS011;64719;52.124;6.226;2023-04-06T00:27:05;11.93;;;6.18;;
76023;SDS011;64719;52.124;6.226;2023-04-06T00:29:31;10.50;;;5.50;;
76023;SDS011;64719;52.124;6.226;2023-04-06T00:31:58;11.75;;;6.47;;
76023;SDS011;64719;52.124;6.226;2023-04-06T00:34:26;12.43;;;5.97;;
76023;SDS011;64719;52.124;6.226;2023-04-06T00:36:52;12.40;;;5.88;;
76023;SDS011;64719;52.124;6.226;2023-04-06T00:39:19;11.23;;;5.28;;
76023;SDS011;64719;52.124;6.226;2023-04-06T00:41:48;12.90;;;5.60;;
76023;SDS011;64719;52.124;6.226;2023-04-06T00:44:17;14.15;;;6.30;;
76023;SDS011;64719;52.124;6.226;2023-04-06T00:46:44;11.77;;;5.93;;
76023;SDS011;64719;52.124;6.226;2023-04-06T00:49:11;11.98;;;5.43;;
76023;SDS011;64719;52.124;6.226;2023-04-06T00:51:39;10.40;;;5.15;;
76023;SDS011;64719;52.124;6.226;2023-04-06T00:54:06;11.73;;;6.10;;
76023;SDS011;64719;52.124;6.226;2023-04-06T00:56:32;9.40;;;4.82;;
76023;SDS011;64719;52.124;6.226;2023-04-06T00:58:59;13.55;;;6.03;;
76023;SDS011;64719;52.124;6.226;2023-04-06T01:01:25;13.57;;;6.22;;
76023;SDS011;64719;52.124;6.226;2023-04-06T01:03:53;13.52;;;6.20;;
76023;SDS011;64719;52.124;6.226;2023-04-06T01:06:20;12.60;;;6.68;;
76023;SDS011;64719;52.124;6.226;2023-04-06T01:08:48;10.32;;;5.95;;
76023;SDS011;64719;52.124;6.226;2023-04-06T01:11:18;12.07;;;6.05;;
76023;SDS011;64719;52.124;6.226;2023-04-06T01:13:45;11.23;;;6.00;;
76023;SDS011;64719;52.124;6.226;2023-04-06T01:16:19;11.35;;;5.82;;
76023;SDS011;64719;52.124;6.226;2023-04-06T01:18:46;9.75;;;5.50;;
76023;SDS011;64719;52.124;6.226;2023-04-06T01:21:16;11.93;;;5.43;;
76023;SDS011;64719;52.124;6.226;2023-04-06T01:23:44;10.48;;;5.25;;
76023;SDS011;64719;52.124;6.226;2023-04-06T01:26:11;13.23;;;6.93;;
76023;SDS011;64719;52.124;6.226;2023-04-06T01:28:38;16.08;;;6.78;;
76023;SDS011;64719;52.124;6.226;2023-04-06T01:31:05;11.27;;;5.57;;
76023;SDS011;64719;52.124;6.226;2023-04-06T01:33:32;12.82;;;6.82;;
76023;SDS011;64719;52.124;6.226;2023-04-06T01:35:59;11.02;;;5.75;;
76023;SDS011;64719;52.124;6.226;2023-04-06T01:38:26;11.38;;;6.13;;
76023;SDS011;64719;52.124;6.226;2023-04-06T01:40:54;11.38;;;5.40;;
76023;SDS011;64719;52.124;6.226;2023-04-06T01:43:24;13.43;;;7.10;;
76023;SDS011;64719;52.124;6.226;2023-04-06T01:45:50;12.80;;;6.18;;
76023;SDS011;64719;52.124;6.226;2023-04-06T01:48:17;10.30;;;5.70;;
76023;SDS011;64719;52.124;6.226;2023-04-06T01:50:45;12.60;;;6.45;;
76023;SDS011;64719;52.124;6.226;2023-04-06T01:53:11;13.70;;;6.43;;
76023;SDS011;64719;52.124;6.226;2023-04-06T01:55:38;9.43;;;5.85;;
76023;SDS011;64719;52.124;6.226;2023-04-06T01:58:06;12.00;;;6.50;;
76023;SDS011;64719;52.124;6.226;2023-04-06T02:00:32;14.00;;;6.60;;
76023;SDS011;64719;52.124;6.226;2023-04-06T02:03:03;12.25;;;5.78;;
76023;SDS011;64719;52.124;6.226;2023-04-06T02:05:30;12.80;;;6.20;;
76023;SDS011;64719;52.124;6.226;2023-04-06T02:07:58;13.43;;;7.00;;
76023;SDS011;64719;52.124;6.226;2023-04-06T02:10:24;13.23;;;6.72;;
76023;SDS011;64719;52.124;6.226;2023-04-06T02:12:51;14.25;;;6.78;;
76023;SDS011;64719;52.124;6.226;2023-04-06T02:15:19;13.65;;;6.38;;
76023;SDS011;64719;52.124;6.226;2023-04-06T02:17:48;13.25;;;5.93;;
76023;SDS011;64719;52.124;6.226;2023-04-06T02:20:15;11.32;;;6.60;;
76023;SDS011;64719;52.124;6.226;2023-04-06T02:22:41;12.77;;;6.22;;
76023;SDS011;64719;52.124;6.226;2023-04-06T02:25:08;11.45;;;5.68;;
76023;SDS011;64719;52.124;6.226;2023-04-06T02:27:34;13.25;;;6.40;;
76023;SDS011;64719;52.124;6.226;2023-04-06T02:30:01;15.07;;;7.72;;
76023;SDS011;64719;52.124;6.226;2023-04-06T02:32:29;12.65;;;6.93;;
76023;SDS011;64719;52.124;6.226;2023-04-06T02:34:56;13.65;;;6.78;;
76023;SDS011;64719;52.124;6.226;2023-04-06T02:37:22;13.35;;;7.38;;
76023;SDS011;64719;52.124;6.226;2023-04-06T02:39:49;14.07;;;7.38;;
76023;SDS011;64719;52.124;6.226;2023-04-06T02:42:15;14.98;;;7.40;;
76023;SDS011;64719;52.124;6.226;2023-04-06T02:44:42;12.80;;;6.70;;
76023;SDS011;64719;52.124;6.226;2023-04-06T02:47:09;15.10;;;7.53;;
76023;SDS011;64719;52.124;6.226;2023-04-06T02:49:37;13.23;;;6.72;;
76023;SDS011;64719;52.124;6.226;2023-04-06T02:52:03;16.02;;;7.20;;
76023;SDS011;64719;52.124;6.226;2023-04-06T02:54:30;11.85;;;6.60;;
76023;SDS011;64719;52.124;6.226;2023-04-06T02:56:56;13.45;;;7.13;;
76023;SDS011;64719;52.124;6.226;2023-04-06T02:59:23;14.88;;;7.15;;
76023;SDS011;64719;52.124;6.226;2023-04-06T03:01:49;16.00;;;7.38;;
76023;SDS011;64719;52.124;6.226;2023-04-06T03:04:16;14.15;;;6.80;;
76023;SDS011;64719;52.124;6.226;2023-04-06T03:06:43;12.75;;;6.63;;
76023;SDS011;64719;52.124;6.226;2023-04-06T03:09:10;17.35;;;8.18;;
76023;SDS011;64719;52.124;6.226;2023-04-06T03:11:36;14.80;;;8.02;;
76023;SDS011;64719;52.124;6.226;2023-04-06T03:14:03;18.02;;;7.65;;
76023;SDS011;64719;52.124;6.226;2023-04-06T03:16:29;15.50;;;6.80;;
76023;SDS011;64719;52.124;6.226;2023-04-06T03:18:56;15.55;;;7.53;;
76023;SDS011;64719;52.124;6.226;2023-04-06T03:21:22;14.23;;;6.95;;
76023;SDS011;64719;52.124;6.226;2023-04-06T03:23:50;16.33;;;7.88;;
76023;SDS011;64719;52.124;6.226;2023-04-06T03:26:17;19.35;;;7.75;;
76023;SDS011;64719;52.124;6.226;2023-04-06T03:28:43;17.48;;;7.05;;
76023;SDS011;64719;52.124;6.226;2023-04-06T03:31:10;16.77;;;7.90;;
76023;SDS011;64719;52.124;6.226;2023-04-06T03:33:36;15.30;;;6.95;;
76023;SDS011;64719;52.124;6.226;2023-04-06T03:36:05;14.18;;;8.07;;
76023;SDS011;64719;52.124;6.226;2023-04-06T03:38:34;14.98;;;8.00;;
76023;SDS011;64719;52.124;6.226;2023-04-06T03:41:02;16.35;;;8.05;;
76023;SDS011;64719;52.124;6.226;2023-04-06T03:43:29;17.20;;;8.88;;
76023;SDS011;64719;52.124;6.226;2023-04-06T03:45:55;13.65;;;7.47;;
76023;SDS011;64719;52.124;6.226;2023-04-06T03:48:22;14.57;;;7.10;;
76023;SDS011;64719;52.124;6.226;2023-04-06T03:50:48;16.83;;;8.02;;
76023;SDS011;64719;52.124;6.226;2023-04-06T03:53:15;15.25;;;8.30;;
76023;SDS011;64719;52.124;6.226;2023-04-06T03:55:41;15.02;;;7.63;;
76023;SDS011;64719;52.124;6.226;2023-04-06T03:58:09;14.70;;;7.80;;
76023;SDS011;64719;52.124;6.226;2023-04-06T04:00:35;18.27;;;8.80;;
76023;SDS011;64719;52.124;6.226;2023-04-06T04:03:03;16.73;;;7.75;;
76023;SDS011;64719;52.124;6.226;2023-04-06T04:05:30;16.67;;;8.38;;
76023;SDS011;64719;52.124;6.226;2023-04-06T04:07:56;15.63;;;8.20;;
76023;SDS011;64719;52.124;6.226;2023-04-06T04:10:23;20.85;;;9.32;;
76023;SDS011;64719;52.124;6.226;2023-04-06T04:12:50;17.85;;;9.23;;
76023;SDS011;64719;52.124;6.226;2023-04-06T04:15:19;19.27;;;9.38;;
76023;SDS011;64719;52.124;6.226;2023-04-06T04:17:45;15.68;;;8.73;;
76023;SDS011;64719;52.124;6.226;2023-04-06T04:20:14;16.65;;;8.48;;
76023;SDS011;64719;52.124;6.226;2023-04-06T04:22:41;16.58;;;7.72;;
76023;SDS011;64719;52.124;6.226;2023-04-06T04:25:08;18.85;;;8.18;;
76023;SDS011;64719;52.124;6.226;2023-04-06T04:27:35;15.57;;;8.40;;
76023;SDS011;64719;52.124;6.226;2023-04-06T04:30:01;20.33;;;9.02;;
76023;SDS011;64719;52.124;6.226;2023-04-06T04:32:29;20.63;;;9.95;;
76023;SDS011;64719;52.124;6.226;2023-04-06T04:34:56;16.92;;;8.00;;
76023;SDS011;64719;52.124;6.226;2023-04-06T04:37:22;17.80;;;7.72;;
76023;SDS011;64719;52.124;6.226;2023-04-06T04:39:49;17.67;;;9.07;;
76023;SDS011;64719;52.124;6.226;2023-04-06T04:42:15;23.08;;;9.63;;
76023;SDS011;64719;52.124;6.226;2023-04-06T04:44:42;19.45;;;10.23;;
76023;SDS011;64719;52.124;6.226;2023-04-06T04:47:08;19.95;;;9.45;;
76023;SDS011;64719;52.124;6.226;2023-04-06T04:49:36;17.13;;;8.75;;
76023;SDS011;64719;52.124;6.226;2023-04-06T04:52:03;17.67;;;9.18;;
76023;SDS011;64719;52.124;6.226;2023-04-06T04:54:29;19.40;;;9.93;;
76023;SDS011;64719;52.124;6.226;2023-04-06T04:56:56;15.88;;;9.05;;
76023;SDS011;64719;52.124;6.226;2023-04-06T04:59:22;19.27;;;9.02;;
76023;SDS011;64719;52.124;6.226;2023-04-06T05:01:49;19.83;;;9.38;;
76023;SDS011;64719;52.124;6.226;2023-04-06T05:04:15;19.35;;;9.32;;
76023;SDS011;64719;52.124;6.226;2023-04-06T05:06:43;20.80;;;10.10;;
76023;SDS011;64719;52.124;6.226;2023-04-06T05:09:10;16.48;;;8.98;;
76023;SDS011;64719;52.124;6.226;2023-04-06T05:11:36;17.98;;;9.48;;
76023;SDS011;64719;52.124;6.226;2023-04-06T05:14:03;17.50;;;9.23;;
76023;SDS011;64719;52.124;6.226;2023-04-06T05:16:34;17.13;;;9.13;;
76023;SDS011;64719;52.124;6.226;2023-04-06T05:19:00;18.50;;;9.07;;
76023;SDS011;64719;52.124;6.226;2023-04-06T05:21:27;17.88;;;9.10;;
76023;SDS011;64719;52.124;6.226;2023-04-06T05:23:54;19.60;;;8.65;;
76023;SDS011;64719;52.124;6.226;2023-04-06T05:26:21;19.17;;;9.25;;
76023;SDS011;64719;52.124;6.226;2023-04-06T05:28:47;18.25;;;9.15;;
76023;SDS011;64719;52.124;6.226;2023-04-06T05:31:14;16.25;;;8.27;;
76023;SDS011;64719;52.124;6.226;2023-04-06T05:33:41;17.23;;;9.32;;
76023;SDS011;64719;52.124;6.226;2023-04-06T05:36:07;16.25;;;8.68;;
76023;SDS011;64719;52.124;6.226;2023-04-06T05:38:34;17.45;;;9.07;;
76023;SDS011;64719;52.124;6.226;2023-04-06T05:41:02;17.02;;;8.43;;
76023;SDS011;64719;52.124;6.226;2023-04-06T05:43:28;15.70;;;8.13;;
76023;SDS011;64719;52.124;6.226;2023-04-06T05:45:55;15.00;;;8.40;;
76023;SDS011;64719;52.124;6.226;2023-04-06T05:48:22;16.33;;;8.10;;
76023;SDS011;64719;52.124;6.226;2023-04-06T05:50:48;15.75;;;8.75;;
76023;SDS011;64719;52.124;6.226;2023-04-06T05:53:15;16.75;;;8.98;;
76023;SDS011;64719;52.124;6.226;2023-04-06T05:55:42;16.30;;;8.80;;
76023;SDS011;64719;52.124;6.226;2023-04-06T05:58:10;19.17;;;9.35;;
76023;SDS011;64719;52.124;6.226;2023-04-06T06:00:36;19.35;;;9.68;;
76023;SDS011;64719;52.124;6.226;2023-04-06T06:03:03;16.85;;;9.07;;
76023;SDS011;64719;52.124;6.226;2023-04-06T06:05:30;12.55;;;7.90;;
76023;SDS011;64719;52.124;6.226;2023-04-06T06:07:57;15.15;;;8.90;;
76023;SDS011;64719;52.124;6.226;2023-04-06T06:10:27;12.98;;;8.20;;
76023;SDS011;64719;52.124;6.226;2023-04-06T06:12:53;15.52;;;9.30;;
76023;SDS011;64719;52.124;6.226;2023-04-06T06:15:21;14.43;;;9.45;;
76023;SDS011;64719;52.124;6.226;2023-04-06T06:17:48;13.55;;;8.45;;
76023;SDS011;64719;52.124;6.226;2023-04-06T06:20:14;14.55;;;9.23;;
76023;SDS011;64719;52.124;6.226;2023-04-06T06:22:41;12.45;;;8.38;;
76023;SDS011;64719;52.124;6.226;2023-04-06T06:25:08;13.15;;;8.82;;
76023;SDS011;64719;52.124;6.226;2023-04-06T06:27:34;12.25;;;8.35;;
76023;SDS011;64719;52.124;6.226;2023-04-06T06:30:01;14.60;;;9.73;;
76023;SDS011;64719;52.124;6.226;2023-04-06T06:32:30;13.90;;;8.85;;
76023;SDS011;64719;52.124;6.226;2023-04-06T06:34:58;14.32;;;8.63;;
76023;SDS011;64719;52.124;6.226;2023-04-06T06:37:25;15.20;;;9.77;;
76023;SDS011;64719;52.124;6.226;2023-04-06T06:39:51;14.40;;;9.77;;
76023;SDS011;64719;52.124;6.226;2023-04-06T06:42:18;17.17;;;9.65;;
76023;SDS011;64719;52.124;6.226;2023-04-06T06:44:44;13.88;;;9.38;;
76023;SDS011;64719;52.124;6.226;2023-04-06T06:47:11;13.80;;;9.52;;
76023;SDS011;64719;52.124;6.226;2023-04-06T06:49:39;14.55;;;9.60;;
76023;SDS011;64719;52.124;6.226;2023-04-06T06:56:59;12.63;;;9.15;;
76023;SDS011;64719;52.124;6.226;2023-04-06T06:59:27;17.38;;;10.13;;
76023;SDS011;64719;52.124;6.226;2023-04-06T07:01:54;15.13;;;10.15;;
76023;SDS011;64719;52.124;6.226;2023-04-06T07:04:20;14.63;;;10.30;;
76023;SDS011;64719;52.124;6.226;2023-04-06T07:06:48;15.63;;;10.73;;
76023;SDS011;64719;52.124;6.226;2023-04-06T07:09:15;15.07;;;10.57;;
76023;SDS011;64719;52.124;6.226;2023-04-06T07:11:42;15.75;;;10.80;;
76023;SDS011;64719;52.124;6.226;2023-04-06T07:14:08;16.17;;;10.00;;
76023;SDS011;64719;52.124;6.226;2023-04-06T07:16:35;15.57;;;10.80;;
76023;SDS011;64719;52.124;6.226;2023-04-06T07:19:01;15.07;;;11.02;;
76023;SDS011;64719;52.124;6.226;2023-04-06T07:21:28;16.05;;;10.50;;
76023;SDS011;64719;52.124;6.226;2023-04-06T07:23:55;16.45;;;10.30;;
76023;SDS011;64719;52.124;6.226;2023-04-06T07:26:22;17.17;;;10.30;;
76023;SDS011;64719;52.124;6.226;2023-04-06T07:28:48;17.63;;;10.05;;
76023;SDS011;64719;52.124;6.226;2023-04-06T07:31:15;15.57;;;10.30;;
76023;SDS011;64719;52.124;6.226;2023-04-06T07:33:41;15.85;;;9.95;;
76023;SDS011;64719;52.124;6.226;2023-04-06T07:36:08;16.80;;;10.98;;
76023;SDS011;64719;52.124;6.226;2023-04-06T07:38:34;15.25;;;11.00;;
76023;SDS011;64719;52.124;6.226;2023-04-06T07:41:02;18.23;;;12.07;;
76023;SDS011;64719;52.124;6.226;2023-04-06T07:43:30;19.90;;;13.57;;
76023;SDS011;64719;52.124;6.226;2023-04-06T07:45:56;19.23;;;12.18;;
76023;SDS011;64719;52.124;6.226;2023-04-06T07:50:50;14.60;;;10.63;;
76023;SDS011;64719;52.124;6.226;2023-04-06T07:53:17;18.80;;;11.98;;
76023;SDS011;64719;52.124;6.226;2023-04-06T07:55:43;16.77;;;12.45;;
76023;SDS011;64719;52.124;6.226;2023-04-06T07:58:11;19.63;;;12.55;;
76023;SDS011;64719;52.124;6.226;2023-04-06T08:00:38;19.52;;;12.15;;
76023;SDS011;64719;52.124;6.226;2023-04-06T08:03:04;17.63;;;11.52;;
76023;SDS011;64719;52.124;6.226;2023-04-06T08:05:32;19.85;;;12.10;;
76023;SDS011;64719;52.124;6.226;2023-04-06T08:07:58;15.27;;;11.32;;
76023;SDS011;64719;52.124;6.226;2023-04-06T08:10:25;17.10;;;10.93;;
76023;SDS011;64719;52.124;6.226;2023-04-06T08:12:51;15.32;;;10.80;;
76023;SDS011;64719;52.124;6.226;2023-04-06T08:15:19;16.75;;;11.32;;
76023;SDS011;64719;52.124;6.226;2023-04-06T08:20:12;17.48;;;10.40;;
76023;SDS011;64719;52.124;6.226;2023-04-06T08:22:39;16.55;;;11.20;;
76023;SDS011;64719;52.124;6.226;2023-04-06T08:25:06;16.33;;;11.02;;
76023;SDS011;64719;52.124;6.226;2023-04-06T08:27:32;18.05;;;11.32;;
76023;SDS011;64719;52.124;6.226;2023-04-06T08:29:59;16.50;;;11.32;;
76023;SDS011;64719;52.124;6.226;2023-04-06T08:32:27;19.20;;;11.18;;
76023;SDS011;64719;52.124;6.226;2023-04-06T08:37:20;17.08;;;10.82;;
76023;SDS011;64719;52.124;6.226;2023-04-06T08:39:47;18.15;;;13.07;;
76023;SDS011;64719;52.124;6.226;2023-04-06T08:42:16;16.65;;;11.70;;
76023;SDS011;64719;52.124;6.226;2023-04-06T08:44:45;21.65;;;15.43;;
76023;SDS011;64719;52.124;6.226;2023-04-06T08:47:13;16.65;;;12.45;;
76023;SDS011;64719;52.124;6.226;2023-04-06T08:49:41;18.33;;;12.23;;
76023;SDS011;64719;52.124;6.226;2023-04-06T08:52:09;19.65;;;12.20;;
76023;SDS011;64719;52.124;6.226;2023-04-06T08:54:37;17.27;;;12.27;;
76023;SDS011;64719;52.124;6.226;2023-04-06T08:57:03;21.73;;;13.45;;
76023;SDS011;64719;52.124;6.226;2023-04-06T08:59:31;16.95;;;11.48;;
76023;SDS011;64719;52.124;6.226;2023-04-06T09:01:58;19.13;;;11.68;;
76023;SDS011;64719;52.124;6.226;2023-04-06T09:04:30;22.60;;;15.50;;
76023;SDS011;64719;52.124;6.226;2023-04-06T09:06:59;19.52;;;12.75;;
76023;SDS011;64719;52.124;6.226;2023-04-06T09:09:30;18.77;;;12.15;;
76023;SDS011;64719;52.124;6.226;2023-04-06T09:11:57;19.15;;;11.25;;
76023;SDS011;64719;52.124;6.226;2023-04-06T09:14:34;21.02;;;13.85;;
76023;SDS011;64719;52.124;6.226;2023-04-06T09:17:02;20.02;;;13.40;;
76023;SDS011;64719;52.124;6.226;2023-04-06T09:19:31;23.05;;;13.70;;
76023;SDS011;64719;52.124;6.226;2023-04-06T09:22:03;17.85;;;12.27;;
76023;SDS011;64719;52.124;6.226;2023-04-06T09:24:41;18.95;;;12.65;;
76023;SDS011;64719;52.124;6.226;2023-04-06T09:27:09;19.92;;;14.10;;
76023;SDS011;64719;52.124;6.226;2023-04-06T09:29:35;16.77;;;12.10;;
76023;SDS011;64719;52.124;6.226;2023-04-06T09:32:03;17.55;;;11.93;;
76023;SDS011;64719;52.124;6.226;2023-04-06T09:34:30;18.73;;;11.88;;
76023;SDS011;64719;52.124;6.226;2023-04-06T09:36:57;20.35;;;12.63;;
76023;SDS011;64719;52.124;6.226;2023-04-06T09:39:25;17.40;;;11.30;;
76023;SDS011;64719;52.124;6.226;2023-04-06T09:41:52;17.33;;;11.50;;
76023;SDS011;64719;52.124;6.226;2023-04-06T09:44:20;22.98;;;13.00;;
76023;SDS011;64719;52.124;6.226;2023-04-06T09:46:49;19.02;;;12.98;;
76023;SDS011;64719;52.124;6.226;2023-04-06T09:49:19;18.90;;;12.18;;
76023;SDS011;64719;52.124;6.226;2023-04-06T09:51:46;18.67;;;12.52;;
76023;SDS011;64719;52.124;6.226;2023-04-06T09:54:20;19.35;;;12.23;;
76023;SDS011;64719;52.124;6.226;2023-04-06T09:56:50;17.83;;;12.02;;
76023;SDS011;64719;52.124;6.226;2023-04-06T09:59:21;17.58;;;11.70;;
76023;SDS011;64719;52.124;6.226;2023-04-06T10:01:57;18.92;;;12.80;;
76023;SDS011;64719;52.124;6.226;2023-04-06T10:04:28;21.50;;;12.73;;
76023;SDS011;64719;52.124;6.226;2023-04-06T10:07:02;17.83;;;12.00;;
76023;SDS011;64719;52.124;6.226;2023-04-06T10:09:32;18.15;;;13.40;;
76023;SDS011;64719;52.124;6.226;2023-04-06T10:12:04;19.33;;;14.30;;
76023;SDS011;64719;52.124;6.226;2023-04-06T10:14:32;17.05;;;12.57;;
76023;SDS011;64719;52.124;6.226;2023-04-06T10:17:01;16.45;;;12.35;;
76023;SDS011;64719;52.124;6.226;2023-04-06T10:19:30;17.02;;;12.32;;
76023;SDS011;64719;52.124;6.226;2023-04-06T10:22:05;16.73;;;12.25;;
76023;SDS011;64719;52.124;6.226;2023-04-06T10:24:37;19.15;;;13.18;;
76023;SDS011;64719;52.124;6.226;2023-04-06T10:27:06;16.55;;;11.52;;
76023;SDS011;64719;52.124;6.226;2023-04-06T10:29:44;18.63;;;12.60;;
76023;SDS011;64719;52.124;6.226;2023-04-06T10:32:11;18.05;;;12.10;;
76023;SDS011;64719;52.124;6.226;2023-04-06T10:34:38;19.13;;;12.40;;
76023;SDS011;64719;52.124;6.226;2023-04-06T10:37:14;19.52;;;13.10;;
76023;SDS011;64719;52.124;6.226;2023-04-06T10:39:47;18.60;;;12.73;;
76023;SDS011;64719;52.124;6.226;2023-04-06T10:42:21;19.60;;;13.23;;
76023;SDS011;64719;52.124;6.226;2023-04-06T10:44:50;19.25;;;13.32;;
76023;SDS011;64719;52.124;6.226;2023-04-06T10:47:16;18.27;;;12.50;;
76023;SDS011;64719;52.124;6.226;2023-04-06T10:49:47;18.23;;;12.60;;
76023;SDS011;64719;52.124;6.226;2023-04-06T10:52:13;20.05;;;13.40;;
76023;SDS011;64719;52.124;6.226;2023-04-06T10:54:41;20.50;;;12.88;;
76023;SDS011;64719;52.124;6.226;2023-04-06T10:57:09;19.98;;;12.93;;
76023;SDS011;64719;52.124;6.226;2023-04-06T10:59:43;18.08;;;11.85;;
76023;SDS011;64719;52.124;6.226;2023-04-06T11:02:18;18.20;;;12.05;;
76023;SDS011;64719;52.124;6.226;2023-04-06T11:04:55;18.58;;;12.18;;
76023;SDS011;64719;52.124;6.226;2023-04-06T11:07:23;19.77;;;12.90;;
76023;SDS011;64719;52.124;6.226;2023-04-06T11:09:50;21.27;;;12.63;;
76023;SDS011;64719;52.124;6.226;2023-04-06T11:12:20;17.90;;;11.63;;
76023;SDS011;64719;52.124;6.226;2023-04-06T11:14:53;19.67;;;10.70;;
76023;SDS011;64719;52.124;6.226;2023-04-06T11:17:25;20.77;;;11.68;;
76023;SDS011;64719;52.124;6.226;2023-04-06T11:19:52;20.17;;;11.70;;
76023;SDS011;64719;52.124;6.226;2023-04-06T11:22:18;19.00;;;11.10;;
76023;SDS011;64719;52.124;6.226;2023-04-06T11:24:46;18.58;;;10.88;;
76023;SDS011;64719;52.124;6.226;2023-04-06T11:27:14;20.15;;;12.15;;
76023;SDS011;64719;52.124;6.226;2023-04-06T11:29:48;18.10;;;11.23;;
76023;SDS011;64719;52.124;6.226;2023-04-06T11:32:23;21.92;;;10.80;;
76023;SDS011;64719;52.124;6.226;2023-04-06T11:34:49;20.55;;;11.25;;
76023;SDS011;64719;52.124;6.226;2023-04-06T11:37:18;17.80;;;10.23;;
76023;SDS011;64719;52.124;6.226;2023-04-06T11:39:48;19.20;;;10.10;;
76023;SDS011;64719;52.124;6.226;2023-04-06T11:42:23;16.90;;;9.23;;
76023;SDS011;64719;52.124;6.226;2023-04-06T11:44:51;15.93;;;8.85;;
76023;SDS011;64719;52.124;6.226;2023-04-06T11:47:18;19.58;;;9.90;;
76023;SDS011;64719;52.124;6.226;2023-04-06T11:49:48;16.60;;;8.88;;
76023;SDS011;64719;52.124;6.226;2023-04-06T11:52:19;15.43;;;8.90;;
76023;SDS011;64719;52.124;6.226;2023-04-06T11:54:50;13.77;;;8.82;;
76023;SDS011;64719;52.124;6.226;2023-04-06T11:57:17;16.35;;;8.63;;
76023;SDS011;64719;52.124;6.226;2023-04-06T11:59:46;15.77;;;9.32;;
76023;SDS011;64719;52.124;6.226;2023-04-06T12:02:12;16.95;;;8.77;;
76023;SDS011;64719;52.124;6.226;2023-04-06T12:04:39;17.42;;;9.73;;
76023;SDS011;64719;52.124;6.226;2023-04-06T12:07:07;14.50;;;8.98;;
76023;SDS011;64719;52.124;6.226;2023-04-06T12:09:33;17.48;;;9.73;;
76023;SDS011;64719;52.124;6.226;2023-04-06T12:12:04;14.27;;;8.63;;
76023;SDS011;64719;52.124;6.226;2023-04-06T12:14:33;16.52;;;9.80;;
76023;SDS011;64719;52.124;6.226;2023-04-06T12:17:00;17.92;;;9.90;;
76023;SDS011;64719;52.124;6.226;2023-04-06T12:19:34;16.98;;;9.55;;
76023;SDS011;64719;52.124;6.226;2023-04-06T12:22:00;20.13;;;9.93;;
76023;SDS011;64719;52.124;6.226;2023-04-06T12:24:28;15.00;;;9.57;;
76023;SDS011;64719;52.124;6.226;2023-04-06T12:26:55;14.85;;;9.40;;
76023;SDS011;64719;52.124;6.226;2023-04-06T12:29:22;16.42;;;9.80;;
76023;SDS011;64719;52.124;6.226;2023-04-06T12:31:50;17.08;;;10.13;;
76023;SDS011;64719;52.124;6.226;2023-04-06T12:34:18;15.35;;;9.23;;
76023;SDS011;64719;52.124;6.226;2023-04-06T12:36:44;18.33;;;10.52;;
76023;SDS011;64719;52.124;6.226;2023-04-06T12:39:11;16.48;;;9.60;;
76023;SDS011;64719;52.124;6.226;2023-04-06T12:41:38;18.30;;;10.30;;
76023;SDS011;64719;52.124;6.226;2023-04-06T12:44:06;18.65;;;10.32;;
76023;SDS011;64719;52.124;6.226;2023-04-06T12:46:33;14.68;;;9.23;;
76023;SDS011;64719;52.124;6.226;2023-04-06T12:49:00;18.80;;;10.13;;
76023;SDS011;64719;52.124;6.226;2023-04-06T12:51:27;16.80;;;9.75;;
76023;SDS011;64719;52.124;6.226;2023-04-06T12:53:54;17.02;;;10.45;;
76023;SDS011;64719;52.124;6.226;2023-04-06T12:56:21;15.40;;;9.40;;
76023;SDS011;64719;52.124;6.226;2023-04-06T12:58:50;15.88;;;10.07;;
76023;SDS011;64719;52.124;6.226;2023-04-06T13:01:20;15.32;;;8.85;;
76023;SDS011;64719;52.124;6.226;2023-04-06T13:03:49;16.50;;;9.27;;
76023;SDS011;64719;52.124;6.226;2023-04-06T13:06:16;13.73;;;8.07;;
76023;SDS011;64719;52.124;6.226;2023-04-06T13:08:42;15.05;;;8.07;;
76023;SDS011;64719;52.124;6.226;2023-04-06T13:11:09;14.77;;;8.55;;
76023;SDS011;64719;52.124;6.226;2023-04-06T13:13:36;14.35;;;7.75;;
76023;SDS011;64719;52.124;6.226;2023-04-06T13:16:05;13.82;;;8.35;;
76023;SDS011;64719;52.124;6.226;2023-04-06T13:18:34;12.73;;;7.50;;
76023;SDS011;64719;52.124;6.226;2023-04-06T13:21:03;14.43;;;7.72;;
76023;SDS011;64719;52.124;6.226;2023-04-06T13:23:30;14.25;;;7.43;;
76023;SDS011;64719;52.124;6.226;2023-04-06T13:25:57;12.40;;;7.57;;
76023;SDS011;64719;52.124;6.226;2023-04-06T13:28:25;12.40;;;7.95;;
76023;SDS011;64719;52.124;6.226;2023-04-06T13:30:52;12.50;;;7.55;;
76023;SDS011;64719;52.124;6.226;2023-04-06T13:33:20;12.57;;;7.95;;
76023;SDS011;64719;52.124;6.226;2023-04-06T13:35:47;11.65;;;7.28;;
76023;SDS011;64719;52.124;6.226;2023-04-06T13:38:14;11.30;;;6.70;;
76023;SDS011;64719;52.124;6.226;2023-04-06T13:40:50;11.25;;;6.88;;
76023;SDS011;64719;52.124;6.226;2023-04-06T13:43:17;11.38;;;6.93;;
76023;SDS011;64719;52.124;6.226;2023-04-06T13:45:48;12.18;;;7.22;;
76023;SDS011;64719;52.124;6.226;2023-04-06T13:48:22;12.65;;;6.95;;
76023;SDS011;64719;52.124;6.226;2023-04-06T13:50:49;15.02;;;8.65;;
76023;SDS011;64719;52.124;6.226;2023-04-06T13:53:15;13.75;;;7.93;;
76023;SDS011;64719;52.124;6.226;2023-04-06T13:55:43;12.30;;;7.15;;
76023;SDS011;64719;52.124;6.226;2023-04-06T13:58:10;9.57;;;6.25;;
76023;SDS011;64719;52.124;6.226;2023-04-06T14:00:36;11.00;;;6.40;;
76023;SDS011;64719;52.124;6.226;2023-04-06T14:05:32;11.65;;;6.63;;
76023;SDS011;64719;52.124;6.226;2023-04-06T14:07:58;10.20;;;6.07;;
76023;SDS011;64719;52.124;6.226;2023-04-06T14:10:25;12.00;;;7.32;;
76023;SDS011;64719;52.124;6.226;2023-04-06T14:12:52;11.80;;;7.05;;
76023;SDS011;64719;52.124;6.226;2023-04-06T14:15:19;11.00;;;6.53;;
76023;SDS011;64719;52.124;6.226;2023-04-06T14:17:46;11.85;;;6.30;;
76023;SDS011;64719;52.124;6.226;2023-04-06T14:20:13;11.27;;;6.43;;
76023;SDS011;64719;52.124;6.226;2023-04-06T14:22:41;11.48;;;6.57;;
76023;SDS011;64719;52.124;6.226;2023-04-06T14:25:08;13.52;;;7.00;;
76023;SDS011;64719;52.124;6.226;2023-04-06T14:27:36;11.15;;;6.45;;
76023;SDS011;64719;52.124;6.226;2023-04-06T14:30:03;16.25;;;8.05;;
76023;SDS011;64719;52.124;6.226;2023-04-06T14:32:36;13.88;;;6.93;;
76023;SDS011;64719;52.124;6.226;2023-04-06T14:35:06;11.85;;;6.65;;
76023;SDS011;64719;52.124;6.226;2023-04-06T14:37:42;11.40;;;6.20;;
76023;SDS011;64719;52.124;6.226;2023-04-06T14:40:09;12.77;;;7.00;;
76023;SDS011;64719;52.124;6.226;2023-04-06T14:42:36;11.45;;;6.13;;
76023;SDS011;64719;52.124;6.226;2023-04-06T14:45:03;12.00;;;6.70;;
76023;SDS011;64719;52.124;6.226;2023-04-06T14:47:36;11.70;;;6.63;;